Time;durP1;ratioP1;P1;durP2;ratioP2;P2;SDS_P1;SDS_P2;PMS_P1;PMS_P2;Temp;Humidity;BMP_temperature;BMP_pressure;BME280_temperature;BME280_humidity;BME280_pressure;Samples;Min_cycle;Max_cycle;Signal;HPM_P1;HPM_P2
2023/07/29 00:01:21;;;;;;;2.67;1.00;;;;;;;;;;4930350;29;20452;-70
2023/07/29 00:03:48;;;;;;;3.77;1.00;;;;;;;;;;4928826;29;20449;-73
2023/07/29 00:06:15;;;;;;;2.03;1.20;;;;;;;;;;4926296;29;20487;-71
2023/07/29 00:08:42;;;;;;;2.90;1.03;;;;;;;;;;4921899;29;20527;-71
2023/07/29 00:11:10;;;;;;;2.47;0.90;;;;;;;;;;4924146;29;20516;-71
2023/07/29 00:13:37;;;;;;;2.00;0.80;;;;;;;;;;4925137;29;20539;-71
2023/07/29 00:16:06;;;;;;;2.23;1.00;;;;;;;;;;4920544;29;20471;-71
2023/07/29 00:18:33;;;;;;;2.60;1.40;;;;;;;;;;4921816;29;20465;-71
2023/07/29 00:21:01;;;;;;;2.30;1.20;;;;;;;;;;4922651;29;20531;-72
2023/07/29 00:23:28;;;;;;;2.27;1.00;;;;;;;;;;4919790;29;20995;-72
2023/07/29 00:25:55;;;;;;;2.97;1.13;;;;;;;;;;4926156;29;20468;-72
2023/07/29 00:28:23;;;;;;;2.40;0.90;;;;;;;;;;4923352;29;20489;-71
2023/07/29 00:30:50;;;;;;;2.40;0.90;;;;;;;;;;4920293;29;20607;-73
2023/07/29 00:33:20;;;;;;;2.17;0.87;;;;;;;;;;4918927;29;20532;-71
2023/07/29 00:35:47;;;;;;;2.00;0.93;;;;;;;;;;4921467;29;20770;-71
2023/07/29 00:38:14;;;;;;;2.20;1.20;;;;;;;;;;4926519;29;20843;-73
2023/07/29 00:40:41;;;;;;;2.13;1.20;;;;;;;;;;4929097;29;20447;-73
2023/07/29 00:43:08;;;;;;;3.60;1.20;;;;;;;;;;4928426;29;20451;-71
2023/07/29 00:45:35;;;;;;;1.90;0.90;;;;;;;;;;4922023;29;20482;-72
2023/07/29 00:48:04;;;;;;;2.00;1.00;;;;;;;;;;4916943;29;20467;-72
2023/07/29 00:50:33;;;;;;;3.03;1.57;;;;;;;;;;4918380;29;20496;-72
2023/07/29 00:53:00;;;;;;;1.70;0.80;;;;;;;;;;4915962;29;20464;-71
2023/07/29 00:55:28;;;;;;;3.10;0.90;;;;;;;;;;4923260;29;20449;-72
2023/07/29 00:57:55;;;;;;;1.73;0.80;;;;;;;;;;4923201;29;20535;-71
2023/07/29 01:00:24;;;;;;;2.43;1.07;;;;;;;;;;4921986;29;20460;-71
2023/07/29 01:02:52;;;;;;;2.10;0.97;;;;;;;;;;4919215;29;20457;-71
2023/07/29 01:05:19;;;;;;;2.27;0.87;;;;;;;;;;4906144;29;20922;-73
2023/07/29 01:07:52;;;;;;;2.10;1.00;;;;;;;;;;4916346;29;20568;-72
2023/07/29 01:10:22;;;;;;;1.90;0.97;;;;;;;;;;4919554;29;20507;-71
2023/07/29 01:12:53;;;;;;;2.70;1.27;;;;;;;;;;4919881;29;20547;-74
2023/07/29 01:15:24;;;;;;;2.30;0.87;;;;;;;;;;4918224;29;20459;-71
2023/07/29 01:17:53;;;;;;;1.70;0.70;;;;;;;;;;4924245;29;20466;-71
2023/07/29 01:20:21;;;;;;;2.40;1.10;;;;;;;;;;4923184;29;20994;-71
2023/07/29 01:22:49;;;;;;;2.00;1.00;;;;;;;;;;4907397;29;20477;-71
2023/07/29 01:25:18;;;;;;;2.10;1.20;;;;;;;;;;4923928;29;20845;-71
2023/07/29 01:27:46;;;;;;;2.43;0.90;;;;;;;;;;4917931;29;20553;-71
2023/07/29 01:30:14;;;;;;;2.30;1.00;;;;;;;;;;4920007;29;20563;-73
2023/07/29 01:32:44;;;;;;;2.27;0.97;;;;;;;;;;4919740;29;20546;-72
2023/07/29 01:35:17;;;;;;;2.07;1.00;;;;;;;;;;4928871;29;20519;-71
2023/07/29 01:37:46;;;;;;;2.70;0.70;;;;;;;;;;4922890;29;20461;-71
2023/07/29 01:40:13;;;;;;;2.60;1.07;;;;;;;;;;4922216;29;20547;-71
2023/07/29 01:42:42;;;;;;;2.00;0.90;;;;;;;;;;4917381;29;20954;-71
2023/07/29 01:45:10;;;;;;;1.83;0.73;;;;;;;;;;4915791;29;20467;-71
2023/07/29 01:47:40;;;;;;;2.00;1.03;;;;;;;;;;4915567;29;20555;-71
2023/07/29 01:50:08;;;;;;;1.73;0.70;;;;;;;;;;4925401;29;20456;-71
2023/07/29 01:52:35;;;;;;;2.20;0.90;;;;;;;;;;4925914;29;20562;-72
2023/07/29 01:55:02;;;;;;;1.83;0.77;;;;;;;;;;4922337;29;20543;-72
2023/07/29 01:57:29;;;;;;;2.30;1.17;;;;;;;;;;4922041;29;20476;-71
2023/07/29 01:59:58;;;;;;;2.13;0.93;;;;;;;;;;4920543;29;20532;-71
2023/07/29 02:02:25;;;;;;;2.73;1.00;;;;;;;;;;4923405;29;20455;-71
2023/07/29 02:04:52;;;;;;;2.43;0.90;;;;;;;;;;4912817;29;20519;-72
2023/07/29 02:07:20;;;;;;;1.73;0.63;;;;;;;;;;4916514;29;20561;-72
2023/07/29 02:09:47;;;;;;;1.87;0.87;;;;;;;;;;4926309;29;20464;-72
2023/07/29 02:12:14;;;;;;;3.20;1.43;;;;;;;;;;4918631;29;20479;-73
2023/07/29 02:14:41;;;;;;;2.40;1.30;;;;;;;;;;4927645;29;20461;-71
2023/07/29 02:17:10;;;;;;;1.97;1.00;;;;;;;;;;4921572;29;20557;-72
2023/07/29 02:19:37;;;;;;;2.90;1.10;;;;;;;;;;4927797;29;20455;-71
2023/07/29 02:22:04;;;;;;;2.20;1.30;;;;;;;;;;4918059;29;20491;-71
2023/07/29 02:24:32;;;;;;;1.80;0.80;;;;;;;;;;4917793;29;20836;-71
2023/07/29 02:26:59;;;;;;;2.00;0.80;;;;;;;;;;4922701;29;20464;-71
2023/07/29 02:29:26;;;;;;;2.90;1.33;;;;;;;;;;4915947;29;20461;-71
2023/07/29 02:31:53;;;;;;;1.97;0.80;;;;;;;;;;4914044;29;20543;-71
2023/07/29 02:34:22;;;;;;;3.50;1.07;;;;;;;;;;4919068;29;20548;-71
2023/07/29 02:36:49;;;;;;;4.17;0.70;;;;;;;;;;4923054;29;20471;-71
2023/07/29 02:39:16;;;;;;;2.30;0.83;;;;;;;;;;4917189;29;20462;-72
2023/07/29 02:41:43;;;;;;;2.17;0.80;;;;;;;;;;4922939;29;20460;-71
2023/07/29 02:44:11;;;;;;;1.80;0.83;;;;;;;;;;4923937;29;21195;-71
2023/07/29 02:46:38;;;;;;;2.20;1.17;;;;;;;;;;4923810;29;20576;-72
2023/07/29 02:49:05;;;;;;;1.67;0.80;;;;;;;;;;4918680;29;20539;-71
2023/07/29 02:51:33;;;;;;;1.80;0.70;;;;;;;;;;4926383;29;20479;-71
2023/07/29 02:54:01;;;;;;;2.93;1.20;;;;;;;;;;4913516;29;20475;-71
2023/07/29 02:56:28;;;;;;;2.70;1.00;;;;;;;;;;4918016;29;20491;-72
2023/07/29 02:58:55;;;;;;;1.90;0.70;;;;;;;;;;4921206;29;20448;-72
2023/07/29 03:01:22;;;;;;;1.77;0.80;;;;;;;;;;4924738;29;20464;-72
2023/07/29 03:03:49;;;;;;;2.37;1.23;;;;;;;;;;4917721;29;20468;-73
2023/07/29 03:06:16;;;;;;;2.27;1.07;;;;;;;;;;4910940;29;20475;-73
2023/07/29 03:08:45;;;;;;;1.90;0.90;;;;;;;;;;4917619;29;20887;-72
2023/07/29 03:11:13;;;;;;;2.53;0.87;;;;;;;;;;4918753;29;20551;-73
2023/07/29 03:13:40;;;;;;;3.30;1.30;;;;;;;;;;4915051;29;20469;-72
2023/07/29 03:16:08;;;;;;;3.00;1.20;;;;;;;;;;4914942;29;20464;-73
2023/07/29 03:18:35;;;;;;;2.10;1.10;;;;;;;;;;4927225;29;20456;-71
2023/07/29 03:21:03;;;;;;;2.80;1.10;;;;;;;;;;4918605;29;21302;-73
2023/07/29 03:23:30;;;;;;;2.30;0.80;;;;;;;;;;4915016;29;20465;-70
2023/07/29 03:25:59;;;;;;;2.50;1.20;;;;;;;;;;4915306;29;20472;-72
2023/07/29 03:28:27;;;;;;;1.97;0.93;;;;;;;;;;4916067;29;20464;-72
2023/07/29 03:30:54;;;;;;;2.23;1.10;;;;;;;;;;4921362;29;20806;-73
2023/07/29 03:33:21;;;;;;;1.73;0.90;;;;;;;;;;4920484;29;20547;-73
2023/07/29 03:35:49;;;;;;;2.13;1.00;;;;;;;;;;4925500;29;20478;-72
2023/07/29 03:38:16;;;;;;;2.30;0.97;;;;;;;;;;4916005;29;20461;-72
2023/07/29 03:40:45;;;;;;;1.97;0.90;;;;;;;;;;4919856;28;21177;-71
2023/07/29 03:43:13;;;;;;;1.83;0.90;;;;;;;;;;4920502;29;20613;-73
2023/07/29 03:45:42;;;;;;;1.90;1.00;;;;;;;;;;4913864;29;20486;-72
2023/07/29 03:48:10;;;;;;;2.13;1.00;;;;;;;;;;4954783;23;20495;-73
2023/07/29 03:50:37;;;;;;;4.17;1.50;;;;;;;;;;4930122;29;20994;-72
2023/07/29 03:53:04;;;;;;;1.87;0.87;;;;;;;;;;4930995;29;20487;-71
2023/07/29 03:55:31;;;;;;;1.67;0.67;;;;;;;;;;4931297;29;20490;-72
2023/07/29 03:57:59;;;;;;;2.20;1.17;;;;;;;;;;4932469;29;20544;-72
2023/07/29 04:00:27;;;;;;;1.93;0.90;;;;;;;;;;4930426;29;20853;-73
2023/07/29 04:02:55;;;;;;;3.00;1.47;;;;;;;;;;4931168;29;20558;-71
2023/07/29 04:05:22;;;;;;;3.40;1.03;;;;;;;;;;4930232;29;20850;-72
2023/07/29 04:07:49;;;;;;;2.43;1.07;;;;;;;;;;4929960;29;20463;-71
2023/07/29 04:10:16;;;;;;;2.63;0.70;;;;;;;;;;4932133;29;20503;-71
2023/07/29 04:12:45;;;;;;;2.20;1.03;;;;;;;;;;4931486;29;20485;-71
2023/07/29 04:15:12;;;;;;;2.20;1.00;;;;;;;;;;4933435;29;20546;-71
2023/07/29 04:17:40;;;;;;;2.63;1.10;;;;;;;;;;4931942;29;20886;-71
2023/07/29 04:20:08;;;;;;;2.40;1.00;;;;;;;;;;4929858;29;20447;-71
2023/07/29 04:22:35;;;;;;;1.90;0.80;;;;;;;;;;4934959;29;20443;-71
2023/07/29 04:25:04;;;;;;;1.97;1.00;;;;;;;;;;4932691;29;20444;-72
2023/07/29 04:27:31;;;;;;;2.37;1.10;;;;;;;;;;4930132;29;20550;-72
2023/07/29 04:29:58;;;;;;;4.77;1.40;;;;;;;;;;4932268;29;20491;-72
2023/07/29 04:32:26;;;;;;;2.10;0.90;;;;;;;;;;4934285;29;21099;-71
2023/07/29 04:34:54;;;;;;;2.17;1.17;;;;;;;;;;4931855;29;20475;-71
2023/07/29 04:37:21;;;;;;;2.40;1.20;;;;;;;;;;4934854;28;20566;-70
2023/07/29 04:39:48;;;;;;;2.50;1.20;;;;;;;;;;4930832;29;20518;-71
2023/07/29 04:42:16;;;;;;;2.13;0.90;;;;;;;;;;4936176;29;20447;-70
2023/07/29 04:44:43;;;;;;;2.20;1.30;;;;;;;;;;4934479;29;20467;-70
2023/07/29 04:47:10;;;;;;;2.10;0.80;;;;;;;;;;4932382;29;20475;-70
2023/07/29 04:49:37;;;;;;;1.90;0.83;;;;;;;;;;4936856;29;20507;-70
2023/07/29 04:52:06;;;;;;;2.00;0.90;;;;;;;;;;4933465;29;21022;-69
2023/07/29 04:54:34;;;;;;;2.27;1.27;;;;;;;;;;4932252;29;20538;-71
2023/07/29 04:57:01;;;;;;;2.47;0.80;;;;;;;;;;4936873;29;20480;-70
2023/07/29 04:59:29;;;;;;;2.53;1.23;;;;;;;;;;4936143;29;20455;-70
2023/07/29 05:01:56;;;;;;;2.47;1.10;;;;;;;;;;4934961;29;20976;-70
2023/07/29 05:04:23;;;;;;;2.60;1.17;;;;;;;;;;4932378;29;20503;-70
2023/07/29 05:06:51;;;;;;;2.30;1.10;;;;;;;;;;4936650;29;20507;-70
2023/07/29 05:09:20;;;;;;;2.97;1.40;;;;;;;;;;4931583;29;20554;-70
2023/07/29 05:11:48;;;;;;;1.97;1.17;;;;;;;;;;4933506;29;20483;-71
2023/07/29 05:14:16;;;;;;;3.00;1.10;;;;;;;;;;4933118;29;20543;-70
2023/07/29 05:16:43;;;;;;;6.10;1.60;;;;;;;;;;4931174;29;20562;-70
2023/07/29 05:19:10;;;;;;;2.77;1.40;;;;;;;;;;4937509;29;20455;-70
2023/07/29 05:21:38;;;;;;;1.90;1.03;;;;;;;;;;4935976;29;20455;-70
2023/07/29 05:24:06;;;;;;;2.13;0.87;;;;;;;;;;4936260;29;20456;-70
2023/07/29 05:26:35;;;;;;;2.63;0.93;;;;;;;;;;4936399;29;20506;-71
2023/07/29 05:29:03;;;;;;;2.07;0.97;;;;;;;;;;4932662;29;20978;-71
2023/07/29 05:31:30;;;;;;;8.07;1.10;;;;;;;;;;4937506;29;20447;-71
2023/07/29 05:33:58;;;;;;;2.93;1.20;;;;;;;;;;4936603;29;20506;-71
2023/07/29 05:36:25;;;;;;;2.70;1.30;;;;;;;;;;4932334;29;20472;-71
2023/07/29 05:38:55;;;;;;;6.33;1.50;;;;;;;;;;4931434;29;20487;-71
2023/07/29 05:41:22;;;;;;;2.27;1.00;;;;;;;;;;4933184;29;20447;-70
2023/07/29 05:43:51;;;;;;;2.73;1.43;;;;;;;;;;4936108;29;20942;-70
2023/07/29 05:46:18;;;;;;;3.10;1.30;;;;;;;;;;4932093;29;20479;-71
2023/07/29 05:48:45;;;;;;;2.63;1.00;;;;;;;;;;4935442;28;20452;-70
2023/07/29 05:51:13;;;;;;;2.30;1.50;;;;;;;;;;4933213;29;20476;-70
2023/07/29 05:53:40;;;;;;;2.90;1.40;;;;;;;;;;4936055;29;20483;-71
2023/07/29 05:56:07;;;;;;;2.60;1.30;;;;;;;;;;4931213;29;20672;-71
2023/07/29 05:58:34;;;;;;;2.53;1.17;;;;;;;;;;4933188;29;20463;-71
2023/07/29 06:01:03;;;;;;;3.23;1.10;;;;;;;;;;4934414;29;20474;-71
2023/07/29 06:03:30;;;;;;;4.10;2.20;;;;;;;;;;4931875;29;20988;-70
2023/07/29 06:05:57;;;;;;;4.20;2.07;;;;;;;;;;4931290;29;21314;-69
2023/07/29 06:08:28;;;;;;;2.97;1.40;;;;;;;;;;4933673;29;20547;-69
2023/07/29 06:10:55;;;;;;;2.83;1.30;;;;;;;;;;4933303;29;20459;-68
2023/07/29 06:13:22;;;;;;;2.50;1.47;;;;;;;;;;4935897;29;20511;-71
2023/07/29 06:15:49;;;;;;;4.13;1.43;;;;;;;;;;4935093;29;20535;-70
2023/07/29 06:18:18;;;;;;;2.60;1.30;;;;;;;;;;4931820;29;20491;-69
2023/07/29 06:20:45;;;;;;;6.30;1.37;;;;;;;;;;4932755;29;20499;-69
2023/07/29 06:23:12;;;;;;;2.60;1.33;;;;;;;;;;4931279;29;21081;-70
2023/07/29 06:25:39;;;;;;;4.13;2.00;;;;;;;;;;4932745;29;20534;-69
2023/07/29 06:28:06;;;;;;;2.97;1.33;;;;;;;;;;4930077;29;20455;-69
2023/07/29 06:30:33;;;;;;;2.80;1.50;;;;;;;;;;4932142;29;20478;-68
2023/07/29 06:33:01;;;;;;;2.67;1.43;;;;;;;;;;4932755;29;20965;-69
2023/07/29 06:35:29;;;;;;;4.00;1.80;;;;;;;;;;4931760;29;21053;-69
2023/07/29 06:37:56;;;;;;;4.43;1.40;;;;;;;;;;4935391;29;20555;-68
2023/07/29 06:40:23;;;;;;;2.80;1.43;;;;;;;;;;4933344;29;20554;-68
2023/07/29 06:42:50;;;;;;;2.10;1.00;;;;;;;;;;4933878;29;21025;-68
2023/07/29 06:45:18;;;;;;;2.57;1.17;;;;;;;;;;4934581;29;20510;-69
2023/07/29 06:47:46;;;;;;;3.50;1.80;;;;;;;;;;4935270;29;20556;-68
2023/07/29 06:50:13;;;;;;;2.80;1.23;;;;;;;;;;4935417;29;20479;-69
2023/07/29 06:52:42;;;;;;;3.40;1.50;;;;;;;;;;4933998;29;20480;-69
2023/07/29 06:55:10;;;;;;;2.30;1.13;;;;;;;;;;4934460;29;20972;-69
2023/07/29 06:57:37;;;;;;;5.00;1.17;;;;;;;;;;4932738;29;20536;-68
2023/07/29 07:00:04;;;;;;;2.37;1.20;;;;;;;;;;4933896;29;20448;-68
2023/07/29 07:02:32;;;;;;;2.30;1.40;;;;;;;;;;4938850;29;20455;-68
2023/07/29 07:04:59;;;;;;;1.80;0.90;;;;;;;;;;4945539;29;20468;-68
2023/07/29 07:07:26;;;;;;;2.50;1.47;;;;;;;;;;4942984;29;20547;-69
2023/07/29 07:09:54;;;;;;;4.53;1.20;;;;;;;;;;4942386;28;20563;-68
2023/07/29 07:12:21;;;;;;;2.40;1.03;;;;;;;;;;4943575;29;20507;-68
2023/07/29 07:14:49;;;;;;;2.47;1.20;;;;;;;;;;4933337;29;20448;-68
2023/07/29 07:17:16;;;;;;;2.73;0.90;;;;;;;;;;4929193;29;21080;-68
2023/07/29 07:19:43;;;;;;;2.70;1.10;;;;;;;;;;4930267;29;21001;-67
2023/07/29 07:22:10;;;;;;;3.63;1.27;;;;;;;;;;4934841;29;21021;-69
2023/07/29 07:24:37;;;;;;;2.10;1.00;;;;;;;;;;4929697;29;20460;-69
2023/07/29 07:27:06;;;;;;;2.70;1.27;;;;;;;;;;4929313;28;20497;-69
2023/07/29 07:29:34;;;;;;;2.13;0.80;;;;;;;;;;4931111;29;20475;-69
2023/07/29 07:32:01;;;;;;;2.37;1.20;;;;;;;;;;4938161;29;20471;-68
2023/07/29 07:34:28;;;;;;;1.90;0.80;;;;;;;;;;4935861;29;20945;-68
2023/07/29 07:36:55;;;;;;;1.80;0.70;;;;;;;;;;4933428;29;20578;-68
2023/07/29 07:39:22;;;;;;;2.10;0.80;;;;;;;;;;4931356;29;20477;-68
2023/07/29 07:41:51;;;;;;;1.97;0.93;;;;;;;;;;4928896;29;20474;-68
2023/07/29 07:44:20;;;;;;;2.17;1.27;;;;;;;;;;4931897;29;20482;-68
2023/07/29 07:46:47;;;;;;;2.90;1.00;;;;;;;;;;4935635;29;21032;-69
2023/07/29 07:49:14;;;;;;;2.23;1.00;;;;;;;;;;4929143;29;20459;-68
2023/07/29 07:51:42;;;;;;;3.20;1.20;;;;;;;;;;4930577;29;20455;-70
2023/07/29 07:54:09;;;;;;;2.70;1.23;;;;;;;;;;4931714;29;20493;-69
2023/07/29 07:56:37;;;;;;;2.80;1.43;;;;;;;;;;4933299;29;20896;-69
2023/07/29 07:59:04;;;;;;;2.60;1.07;;;;;;;;;;4934719;29;20448;-70
2023/07/29 08:01:37;;;;;;;2.40;1.27;;;;;;;;;;4931393;29;20460;-69
2023/07/29 08:04:04;;;;;;;2.47;1.30;;;;;;;;;;4932926;29;20455;-69
2023/07/29 08:06:32;;;;;;;3.03;1.23;;;;;;;;;;4930358;29;20479;-68
2023/07/29 08:08:59;;;;;;;2.80;1.10;;;;;;;;;;4933005;29;20448;-68
2023/07/29 08:11:26;;;;;;;1.97;0.80;;;;;;;;;;4927597;29;21016;-68
2023/07/29 08:13:54;;;;;;;2.13;0.90;;;;;;;;;;4936106;29;20908;-68
2023/07/29 08:16:21;;;;;;;2.93;1.33;;;;;;;;;;4935350;29;20864;-69
2023/07/29 08:18:49;;;;;;;2.40;1.20;;;;;;;;;;4935381;29;20472;-68
2023/07/29 08:21:17;;;;;;;3.27;1.50;;;;;;;;;;4938217;29;20460;-68
2023/07/29 08:23:44;;;;;;;2.20;1.00;;;;;;;;;;4938140;29;20467;-68
2023/07/29 08:26:11;;;;;;;2.60;1.03;;;;;;;;;;4932282;29;20492;-68
2023/07/29 08:28:39;;;;;;;1.90;0.90;;;;;;;;;;4934634;29;20467;-68
2023/07/29 08:31:06;;;;;;;2.03;1.10;;;;;;;;;;4934043;29;20467;-68
2023/07/29 08:33:34;;;;;;;1.83;0.80;;;;;;;;;;4933737;29;20567;-68
2023/07/29 08:36:02;;;;;;;3.00;2.00;;;;;;;;;;4935496;29;20484;-68
2023/07/29 08:38:30;;;;;;;2.67;1.07;;;;;;;;;;4934765;29;20526;-68
2023/07/29 08:41:01;;;;;;;1.80;0.87;;;;;;;;;;4933314;29;20511;-68
2023/07/29 08:43:31;;;;;;;1.80;0.80;;;;;;;;;;4934932;29;20461;-68
2023/07/29 08:45:58;;;;;;;1.70;0.80;;;;;;;;;;4934278;29;20459;-68
2023/07/29 08:48:30;;;;;;;2.33;1.00;;;;;;;;;;4934093;29;20506;-68
2023/07/29 08:50:59;;;;;;;5.70;1.40;;;;;;;;;;4937411;29;20499;-68
2023/07/29 08:53:29;;;;;;;2.53;1.00;;;;;;;;;;4934580;29;20522;-68
2023/07/29 08:55:56;;;;;;;2.17;0.93;;;;;;;;;;4933493;29;20467;-69
2023/07/29 08:58:26;;;;;;;2.90;1.30;;;;;;;;;;4933171;29;20459;-68
2023/07/29 09:00:53;;;;;;;1.80;0.80;;;;;;;;;;4933797;29;20463;-68
2023/07/29 09:03:21;;;;;;;3.00;1.40;;;;;;;;;;4938598;28;20436;-70
2023/07/29 09:05:49;;;;;;;2.70;1.13;;;;;;;;;;4934650;29;20965;-69
2023/07/29 09:08:16;;;;;;;1.63;0.67;;;;;;;;;;4935445;29;20463;-69
2023/07/29 09:10:45;;;;;;;2.27;1.00;;;;;;;;;;4935291;29;20474;-68
2023/07/29 09:13:12;;;;;;;2.67;1.07;;;;;;;;;;4936188;29;20475;-68
2023/07/29 09:15:39;;;;;;;1.73;0.70;;;;;;;;;;4934966;29;20475;-68
2023/07/29 09:18:10;;;;;;;3.40;1.00;;;;;;;;;;4935875;29;20688;-68
2023/07/29 09:20:38;;;;;;;1.87;0.90;;;;;;;;;;4934908;29;20768;-70
2023/07/29 09:23:08;;;;;;;2.00;0.90;;;;;;;;;;4936986;29;20454;-68
2023/07/29 09:25:36;;;;;;;2.00;0.77;;;;;;;;;;4935695;29;20557;-68
2023/07/29 09:28:11;;;;;;;3.30;0.97;;;;;;;;;;4931021;29;20467;-68
2023/07/29 09:30:39;;;;;;;2.40;1.30;;;;;;;;;;4934780;29;20451;-67
2023/07/29 09:33:06;;;;;;;2.20;1.00;;;;;;;;;;4933621;29;20511;-68
2023/07/29 09:35:35;;;;;;;2.13;0.97;;;;;;;;;;4931551;29;20460;-68
2023/07/29 09:38:02;;;;;;;2.20;1.10;;;;;;;;;;4931531;29;20466;-69
2023/07/29 09:40:35;;;;;;;2.03;0.80;;;;;;;;;;4937428;29;20822;-69
2023/07/29 09:43:02;;;;;;;2.10;0.87;;;;;;;;;;4934230;29;20985;-69
2023/07/29 09:45:31;;;;;;;1.80;0.90;;;;;;;;;;4935001;29;20534;-69
2023/07/29 09:47:59;;;;;;;1.93;1.17;;;;;;;;;;4934422;29;20470;-67
2023/07/29 09:50:26;;;;;;;2.07;0.87;;;;;;;;;;4935756;29;20464;-68
2023/07/29 09:52:54;;;;;;;2.73;1.10;;;;;;;;;;4936708;28;20448;-69
2023/07/29 09:55:23;;;;;;;2.00;0.93;;;;;;;;;;4935505;29;20460;-68
2023/07/29 09:57:54;;;;;;;2.57;0.93;;;;;;;;;;4934513;29;20596;-68
2023/07/29 10:00:22;;;;;;;2.00;1.00;;;;;;;;;;4935263;29;20538;-68
2023/07/29 10:02:51;;;;;;;1.90;0.80;;;;;;;;;;4937229;29;20448;-69
2023/07/29 10:05:18;;;;;;;1.93;1.00;;;;;;;;;;4934626;29;20448;-69
2023/07/29 10:07:46;;;;;;;2.20;0.97;;;;;;;;;;4935753;29;20943;-68
2023/07/29 10:10:13;;;;;;;1.93;0.90;;;;;;;;;;4933019;29;20871;-69
2023/07/29 10:12:42;;;;;;;3.10;1.20;;;;;;;;;;4934681;29;20444;-69
2023/07/29 10:15:10;;;;;;;2.60;1.00;;;;;;;;;;4933132;29;20480;-68
2023/07/29 10:17:37;;;;;;;2.90;1.27;;;;;;;;;;4937555;29;20483;-69
2023/07/29 10:20:07;;;;;;;1.80;0.77;;;;;;;;;;4930659;29;20478;-68
2023/07/29 10:22:35;;;;;;;1.70;0.80;;;;;;;;;;4934103;29;20452;-68
2023/07/29 10:25:08;;;;;;;3.40;0.90;;;;;;;;;;4935230;29;20448;-69
2023/07/29 10:27:41;;;;;;;2.60;1.07;;;;;;;;;;4935565;29;20471;-68
2023/07/29 10:30:09;;;;;;;2.37;1.20;;;;;;;;;;4933917;29;20503;-69
2023/07/29 10:32:39;;;;;;;2.47;1.13;;;;;;;;;;4935166;29;20931;-69
2023/07/29 10:35:10;;;;;;;1.70;0.90;;;;;;;;;;4934527;29;20499;-68
2023/07/29 10:37:37;;;;;;;2.40;1.20;;;;;;;;;;4935091;29;20477;-69
2023/07/29 10:40:08;;;;;;;1.80;0.90;;;;;;;;;;4932895;29;20579;-68
2023/07/29 10:42:35;;;;;;;2.10;1.00;;;;;;;;;;4935595;29;21026;-69
2023/07/29 10:45:18;;;;;;;1.80;1.00;;;;;;;;;;4933211;29;20518;-69
2023/07/29 10:47:45;;;;;;;2.00;1.20;;;;;;;;;;4932301;29;20455;-69
2023/07/29 10:50:20;;;;;;;2.50;1.00;;;;;;;;;;4937067;29;20447;-69
2023/07/29 10:52:50;;;;;;;2.37;1.00;;;;;;;;;;4928569;29;20530;-70
2023/07/29 10:55:28;;;;;;;2.00;1.00;;;;;;;;;;4931379;29;20475;-69
2023/07/29 10:58:06;;;;;;;1.90;0.80;;;;;;;;;;4933499;29;20452;-68
2023/07/29 11:00:34;;;;;;;2.13;1.03;;;;;;;;;;4933933;29;21009;-68
2023/07/29 11:03:02;;;;;;;2.40;1.00;;;;;;;;;;4934754;29;20491;-69
2023/07/29 11:05:43;;;;;;;1.87;0.90;;;;;;;;;;4929042;29;20455;-70
2023/07/29 11:08:17;;;;;;;2.10;0.70;;;;;;;;;;4934069;29;20821;-69
2023/07/29 11:10:45;;;;;;;2.40;1.10;;;;;;;;;;4930804;29;20898;-67
2023/07/29 11:13:13;;;;;;;2.00;1.03;;;;;;;;;;4935248;29;20451;-68
2023/07/29 11:15:40;;;;;;;2.37;1.30;;;;;;;;;;4932137;29;20876;-68
2023/07/29 11:18:08;;;;;;;1.77;0.87;;;;;;;;;;4935130;29;20455;-68
2023/07/29 11:20:38;;;;;;;1.90;0.87;;;;;;;;;;4932023;29;20448;-67
2023/07/29 11:23:05;;;;;;;3.00;1.20;;;;;;;;;;4931007;29;20498;-68
2023/07/29 11:25:35;;;;;;;2.00;0.80;;;;;;;;;;4930512;29;20454;-68
2023/07/29 11:28:02;;;;;;;1.60;0.70;;;;;;;;;;4931167;29;20449;-68
2023/07/29 11:30:30;;;;;;;2.17;1.00;;;;;;;;;;4932417;29;20456;-70
2023/07/29 11:32:58;;;;;;;1.70;0.80;;;;;;;;;;4930908;29;20443;-70
2023/07/29 11:35:25;;;;;;;2.23;0.97;;;;;;;;;;4930530;29;20494;-68
2023/07/29 11:37:57;;;;;;;2.20;1.07;;;;;;;;;;4936876;29;20529;-68
2023/07/29 11:40:24;;;;;;;2.13;1.20;;;;;;;;;;4934984;29;20456;-68
2023/07/29 11:42:54;;;;;;;2.50;1.00;;;;;;;;;;4934338;29;20531;-69
2023/07/29 11:45:22;;;;;;;2.37;0.93;;;;;;;;;;4934040;29;20495;-70
2023/07/29 11:47:49;;;;;;;1.87;0.80;;;;;;;;;;4934138;29;20965;-69
2023/07/29 11:50:16;;;;;;;1.80;1.00;;;;;;;;;;4934887;29;20716;-69
2023/07/29 11:52:44;;;;;;;1.90;0.97;;;;;;;;;;4933814;29;20544;-69
2023/07/29 11:55:13;;;;;;;2.10;1.00;;;;;;;;;;4942871;29;20490;-69
2023/07/29 11:57:41;;;;;;;2.10;1.27;;;;;;;;;;4939700;29;20459;-69
2023/07/29 12:00:11;;;;;;;2.00;1.20;;;;;;;;;;4939968;29;20471;-69
2023/07/29 12:02:39;;;;;;;1.80;0.90;;;;;;;;;;4939851;29;20547;-69
2023/07/29 12:05:08;;;;;;;1.70;0.80;;;;;;;;;;4930818;29;21039;-68
2023/07/29 12:07:36;;;;;;;2.07;1.03;;;;;;;;;;4933247;29;20487;-68
2023/07/29 12:10:03;;;;;;;2.63;1.20;;;;;;;;;;4931983;29;20586;-68
2023/07/29 12:12:32;;;;;;;2.17;1.13;;;;;;;;;;4934417;29;20994;-69
2023/07/29 12:15:00;;;;;;;1.93;1.10;;;;;;;;;;4933513;29;20574;-69
2023/07/29 12:17:27;;;;;;;2.30;1.03;;;;;;;;;;4934459;29;20542;-68
2023/07/29 12:19:56;;;;;;;1.80;1.00;;;;;;;;;;4934586;28;20450;-68
2023/07/29 12:22:23;;;;;;;2.00;1.03;;;;;;;;;;4932485;29;20459;-68
2023/07/29 12:24:53;;;;;;;1.70;0.80;;;;;;;;;;4933562;29;20451;-68
2023/07/29 12:27:23;;;;;;;2.07;1.37;;;;;;;;;;4932135;29;20483;-68
2023/07/29 12:29:53;;;;;;;1.77;0.80;;;;;;;;;;4931691;29;20455;-68
2023/07/29 12:32:21;;;;;;;1.90;0.90;;;;;;;;;;4933167;29;20539;-68
2023/07/29 12:34:48;;;;;;;2.03;0.90;;;;;;;;;;4931996;29;20475;-68
2023/07/29 12:37:15;;;;;;;2.57;1.17;;;;;;;;;;4932404;29;20467;-69
2023/07/29 12:39:42;;;;;;;1.70;0.90;;;;;;;;;;4931942;29;20451;-69
2023/07/29 12:42:10;;;;;;;2.77;1.17;;;;;;;;;;4934081;29;20466;-68
2023/07/29 12:44:37;;;;;;;2.50;0.87;;;;;;;;;;4932509;28;20550;-68
2023/07/29 12:47:08;;;;;;;1.97;1.20;;;;;;;;;;4930399;29;20479;-68
2023/07/29 12:49:35;;;;;;;1.60;0.80;;;;;;;;;;4930738;29;20830;-68
2023/07/29 12:52:03;;;;;;;1.80;0.90;;;;;;;;;;4928493;29;20447;-68
2023/07/29 12:54:30;;;;;;;2.17;1.23;;;;;;;;;;4932759;29;20489;-68
2023/07/29 12:56:57;;;;;;;2.70;1.30;;;;;;;;;;4932505;29;20498;-68
2023/07/29 12:59:24;;;;;;;2.03;1.00;;;;;;;;;;4936128;29;20478;-68
2023/07/29 13:01:51;;;;;;;2.33;1.10;;;;;;;;;;4934849;29;20465;-70
2023/07/29 13:04:20;;;;;;;2.53;1.40;;;;;;;;;;4934119;29;20481;-68
2023/07/29 13:06:47;;;;;;;1.87;0.87;;;;;;;;;;4932962;29;20475;-68
2023/07/29 13:09:14;;;;;;;2.03;1.20;;;;;;;;;;4937138;29;20447;-68
2023/07/29 13:11:41;;;;;;;2.00;1.00;;;;;;;;;;4936848;29;20470;-68
2023/07/29 13:14:08;;;;;;;1.90;1.00;;;;;;;;;;4933447;29;20565;-68
2023/07/29 13:16:36;;;;;;;1.50;0.90;;;;;;;;;;4932842;29;20479;-69
2023/07/29 13:19:03;;;;;;;2.00;1.00;;;;;;;;;;4935713;29;20866;-69
2023/07/29 13:21:31;;;;;;;2.00;1.20;;;;;;;;;;4937565;29;20458;-69
2023/07/29 13:23:59;;;;;;;9.37;1.40;;;;;;;;;;4931650;29;20957;-69
2023/07/29 13:26:26;;;;;;;2.00;1.23;;;;;;;;;;4935697;29;20567;-69
2023/07/29 13:28:53;;;;;;;2.60;1.10;;;;;;;;;;4933148;29;20455;-69
2023/07/29 13:31:20;;;;;;;2.27;1.00;;;;;;;;;;4934586;29;20865;-69
2023/07/29 13:33:47;;;;;;;2.00;1.27;;;;;;;;;;4935437;29;20547;-68
2023/07/29 13:36:14;;;;;;;1.90;1.00;;;;;;;;;;4935926;29;20491;-69
2023/07/29 13:38:43;;;;;;;2.03;1.30;;;;;;;;;;4933754;29;20523;-69
2023/07/29 13:41:10;;;;;;;2.10;1.03;;;;;;;;;;4934192;29;20535;-69
2023/07/29 13:43:37;;;;;;;1.83;1.20;;;;;;;;;;4934320;29;20459;-69
2023/07/29 13:46:05;;;;;;;1.70;0.97;;;;;;;;;;4933258;29;20471;-68
2023/07/29 13:48:33;;;;;;;2.00;1.03;;;;;;;;;;4934356;29;20463;-69
2023/07/29 13:51:00;;;;;;;2.03;1.23;;;;;;;;;;4933812;29;20510;-69
2023/07/29 13:53:27;;;;;;;2.07;1.17;;;;;;;;;;4935158;29;20820;-70
2023/07/29 13:55:55;;;;;;;4.30;1.10;;;;;;;;;;4934173;29;20479;-69
2023/07/29 13:58:23;;;;;;;1.77;0.97;;;;;;;;;;4934529;29;20541;-69
2023/07/29 14:00:50;;;;;;;1.50;0.90;;;;;;;;;;4934426;29;20460;-69
2023/07/29 14:03:17;;;;;;;1.60;0.93;;;;;;;;;;4934119;29;20447;-68
2023/07/29 14:05:44;;;;;;;1.80;1.00;;;;;;;;;;4934829;29;21186;-69
2023/07/29 14:08:12;;;;;;;1.90;1.10;;;;;;;;;;4934514;29;20456;-69
2023/07/29 14:10:39;;;;;;;2.33;1.13;;;;;;;;;;4936278;29;20448;-69
2023/07/29 14:13:07;;;;;;;1.83;1.00;;;;;;;;;;4933299;29;20455;-69
2023/07/29 14:15:35;;;;;;;2.40;1.13;;;;;;;;;;4933498;29;20499;-69
2023/07/29 14:18:02;;;;;;;1.60;1.00;;;;;;;;;;4934992;29;20475;-68
2023/07/29 14:20:29;;;;;;;2.50;1.03;;;;;;;;;;4928608;29;20452;-68
2023/07/29 14:22:56;;;;;;;1.70;1.20;;;;;;;;;;4934638;29;20489;-69
2023/07/29 14:25:24;;;;;;;1.83;1.10;;;;;;;;;;4933061;29;20483;-69
2023/07/29 14:27:51;;;;;;;2.00;1.13;;;;;;;;;;4935243;29;20786;-69
2023/07/29 14:30:20;;;;;;;2.60;1.20;;;;;;;;;;4933078;29;20463;-69
2023/07/29 14:32:47;;;;;;;1.60;1.10;;;;;;;;;;4932980;29;20994;-68
2023/07/29 14:35:14;;;;;;;2.13;1.30;;;;;;;;;;4934486;29;20553;-68
2023/07/29 14:37:42;;;;;;;2.90;1.40;;;;;;;;;;4937673;29;20466;-69
2023/07/29 14:40:09;;;;;;;1.97;1.20;;;;;;;;;;4935454;29;20884;-69
2023/07/29 14:42:37;;;;;;;2.10;1.10;;;;;;;;;;4932768;29;20451;-68
2023/07/29 14:45:04;;;;;;;2.83;0.90;;;;;;;;;;4932963;29;20555;-67
2023/07/29 14:47:34;;;;;;;1.90;0.87;;;;;;;;;;4935477;29;20514;-69